Time;durP1;ratioP1;P1;durP2;ratioP2;P2;SDS_P1;SDS_P2;PMS_P1;PMS_P2;Temp;Humidity;BMP_temperature;BMP_pressure;BME280_temperature;BME280_humidity;BME280_pressure;Samples;Min_cycle;Max_cycle;Signal;HPM_P1;HPM_P2
2023/08/11 00:00:05;;;;;;;1.58;0.85;;;16.90;99.90;;;;;;5033236;28;20051;-75
2023/08/11 00:02:30;;;;;;;0.57;0.38;;;16.90;99.90;;;;;;5033182;28;20029;-75
2023/08/11 00:04:57;;;;;;;1.77;0.85;;;16.90;99.90;;;;;;5033160;28;20158;-75
2023/08/11 00:07:22;;;;;;;2.15;0.70;;;16.90;99.90;;;;;;5033145;28;20473;-75
2023/08/11 00:09:48;;;;;;;1.10;0.70;;;16.90;99.90;;;;;;5033131;28;20024;-75
2023/08/11 00:12:13;;;;;;;3.95;1.00;;;16.90;99.90;;;;;;5033034;28;20030;-75
2023/08/11 00:14:39;;;;;;;1.20;0.55;;;16.90;99.90;;;;;;5033189;28;20088;-75
2023/08/11 00:17:05;;;;;;;2.53;0.90;;;16.90;99.90;;;;;;5032947;28;20026;-76
2023/08/11 00:19:30;;;;;;;2.65;1.10;;;16.90;99.90;;;;;;5031660;28;20104;-76
2023/08/11 00:21:56;;;;;;;2.10;0.77;;;16.90;99.90;;;;;;5032582;28;20527;-76
2023/08/11 00:24:23;;;;;;;1.83;0.70;;;16.80;99.90;;;;;;5033073;28;20014;-76
2023/08/11 00:26:49;;;;;;;3.42;1.33;;;16.80;99.90;;;;;;5032975;28;20493;-75
2023/08/11 00:29:14;;;;;;;1.95;0.90;;;16.80;99.90;;;;;;5031723;28;20109;-76
2023/08/11 00:31:40;;;;;;;3.20;1.05;;;16.70;99.90;;;;;;5036632;28;20053;-76
2023/08/11 00:34:07;;;;;;;1.35;0.68;;;16.70;99.90;;;;;;5036650;28;20032;-75
2023/08/11 00:36:32;;;;;;;1.15;0.85;;;16.70;99.90;;;;;;5037153;28;20022;-75
2023/08/11 00:39:00;;;;;;;2.03;1.00;;;16.70;99.90;;;;;;5036681;28;20032;-75
2023/08/11 00:41:26;;;;;;;2.15;1.00;;;16.70;99.90;;;;;;5036642;28;20401;-76
2023/08/11 00:43:52;;;;;;;3.08;0.85;;;16.60;99.90;;;;;;5035111;28;20370;-76
2023/08/11 00:46:21;;;;;;;3.83;1.13;;;16.60;99.90;;;;;;5036523;28;20028;-75
2023/08/11 00:48:51;;;;;;;1.05;0.40;;;16.60;99.90;;;;;;5035138;28;20032;-75
2023/08/11 00:51:18;;;;;;;1.58;1.27;;;16.60;99.90;;;;;;5036449;28;20020;-76
2023/08/11 00:53:45;;;;;;;2.85;1.42;;;16.60;99.90;;;;;;5036320;28;20021;-75
2023/08/11 00:56:12;;;;;;;2.85;1.17;;;16.60;99.90;;;;;;5034971;28;20144;-75
2023/08/11 00:58:38;;;;;;;5.07;1.88;;;16.60;99.90;;;;;;5036276;28;20037;-74
2023/08/11 01:01:04;;;;;;;2.75;1.23;;;16.60;99.90;;;;;;5036279;28;20037;-75
2023/08/11 01:03:30;;;;;;;2.35;1.25;;;16.60;99.90;;;;;;5036038;28;20100;-75
2023/08/11 01:06:05;;;;;;;3.97;1.13;;;16.60;99.90;;;;;;5036483;28;20543;-75
2023/08/11 01:08:56;;;;;;;3.05;1.15;;;16.60;99.90;;;;;;5036011;28;20036;-75
2023/08/11 01:11:25;;;;;;;3.25;1.77;;;16.60;99.90;;;;;;5036520;28;20101;-75
2023/08/11 01:14:03;;;;;;;1.90;1.35;;;16.60;99.90;;;;;;5035967;28;20060;-75
2023/08/11 01:16:31;;;;;;;2.72;1.48;;;16.50;99.90;;;;;;5036149;28;20053;-75
2023/08/11 01:18:58;;;;;;;2.78;1.45;;;16.50;99.90;;;;;;5034409;28;20025;-75
2023/08/11 01:21:25;;;;;;;3.60;1.33;;;16.40;99.90;;;;;;5035798;28;20476;-75
2023/08/11 01:23:52;;;;;;;5.43;2.25;;;16.50;99.90;;;;;;5035816;28;20052;-75
2023/08/11 01:26:17;;;;;;;9.07;1.80;;;16.50;99.90;;;;;;5035688;28;20075;-75
2023/08/11 01:28:43;;;;;;;3.90;1.85;;;16.50;99.90;;;;;;5035968;28;20017;-75
2023/08/11 01:31:10;;;;;;;3.00;1.88;;;16.50;99.90;;;;;;5036169;28;20052;-75
2023/08/11 01:33:37;;;;;;;5.10;2.45;;;16.50;99.90;;;;;;5035584;28;20009;-75
2023/08/11 01:36:03;;;;;;;5.38;2.83;;;16.50;99.90;;;;;;5034250;28;20388;-75
2023/08/11 01:38:29;;;;;;;4.82;2.03;;;16.50;99.90;;;;;;5035639;28;20104;-75
2023/08/11 01:40:54;;;;;;;2.22;1.35;;;16.40;99.90;;;;;;5034120;28;20527;-75
2023/08/11 01:43:21;;;;;;;3.58;1.95;;;16.50;99.90;;;;;;5034381;28;20101;-75
2023/08/11 01:45:48;;;;;;;6.45;2.20;;;16.40;99.90;;;;;;5035397;28;20419;-75
2023/08/11 01:48:16;;;;;;;4.78;2.05;;;16.40;99.90;;;;;;5033994;28;20021;-75
2023/08/11 01:50:42;;;;;;;3.92;2.05;;;16.40;99.90;;;;;;5034047;28;20018;-75
2023/08/11 01:53:08;;;;;;;4.68;2.17;;;16.40;99.90;;;;;;5034018;28;20028;-75
2023/08/11 01:55:34;;;;;;;3.53;1.70;;;16.40;99.90;;;;;;5035246;28;20026;-75
2023/08/11 01:58:00;;;;;;;3.40;2.08;;;16.40;99.90;;;;;;5033883;28;20025;-75
2023/08/11 02:00:28;;;;;;;3.83;2.20;;;16.30;99.90;;;;;;5035043;28;20032;-75
2023/08/11 02:02:53;;;;;;;4.90;2.38;;;16.30;99.90;;;;;;5034894;28;20014;-75
2023/08/11 02:05:19;;;;;;;3.20;2.40;;;16.30;99.90;;;;;;5034832;28;20108;-75
2023/08/11 02:07:45;;;;;;;7.10;2.40;;;16.30;99.90;;;;;;5035070;28;20107;-75
2023/08/11 02:10:11;;;;;;;4.72;2.38;;;16.30;99.90;;;;;;5034964;28;20029;-75
2023/08/11 02:12:38;;;;;;;4.30;2.67;;;16.20;99.90;;;;;;5033562;28;20030;-75
2023/08/11 02:15:07;;;;;;;5.75;2.83;;;16.20;99.90;;;;;;5033580;28;20481;-74
2023/08/11 02:17:34;;;;;;;5.63;2.85;;;16.20;99.90;;;;;;5034693;28;20025;-75
2023/08/11 02:20:00;;;;;;;7.07;2.55;;;16.20;99.90;;;;;;5034732;28;20107;-75
2023/08/11 02:22:26;;;;;;;4.53;2.88;;;16.20;99.90;;;;;;5034710;28;20053;-75
2023/08/11 02:24:52;;;;;;;4.00;2.40;;;16.20;99.90;;;;;;5034601;28;20436;-75
2023/08/11 02:27:17;;;;;;;6.18;2.65;;;16.10;99.90;;;;;;5034559;28;20022;-75
2023/08/11 02:29:44;;;;;;;6.25;2.60;;;16.10;99.90;;;;;;5033534;28;20029;-76
2023/08/11 02:32:11;;;;;;;3.47;2.63;;;16.10;99.90;;;;;;5034591;28;20025;-75
2023/08/11 02:34:37;;;;;;;5.65;3.28;;;16.20;99.90;;;;;;5034883;28;20488;-75
2023/08/11 02:37:02;;;;;;;6.85;3.35;;;16.00;99.90;;;;;;5034394;28;20097;-75
2023/08/11 02:39:28;;;;;;;4.40;2.58;;;16.00;99.90;;;;;;5034859;28;20021;-75
2023/08/11 02:41:55;;;;;;;7.32;2.60;;;16.00;99.90;;;;;;5035101;28;20037;-75
2023/08/11 02:44:20;;;;;;;4.22;3.13;;;16.00;99.90;;;;;;5034438;28;20052;-76
2023/08/11 02:46:46;;;;;;;6.93;2.92;;;16.00;99.90;;;;;;5034154;28;20088;-75
2023/08/11 02:49:12;;;;;;;6.03;3.33;;;16.00;99.90;;;;;;5032915;28;20095;-75
2023/08/11 02:51:37;;;;;;;7.07;3.63;;;16.00;99.90;;;;;;5032952;28;20091;-75
2023/08/11 02:54:04;;;;;;;4.82;2.85;;;16.00;99.90;;;;;;5033649;28;20029;-75
2023/08/11 02:56:29;;;;;;;6.88;3.60;;;16.00;99.90;;;;;;5034584;28;20014;-75
2023/08/11 02:58:58;;;;;;;8.35;4.03;;;15.90;99.90;;;;;;5033989;28;20080;-76
2023/08/11 03:01:25;;;;;;;5.53;3.15;;;15.90;99.90;;;;;;5034371;28;20493;-75
2023/08/11 03:03:50;;;;;;;5.95;3.50;;;15.90;99.90;;;;;;5033816;28;20025;-75
2023/08/11 03:06:16;;;;;;;6.28;3.75;;;15.90;99.90;;;;;;5034003;28;20025;-76
2023/08/11 03:08:42;;;;;;;7.68;4.13;;;15.80;99.90;;;;;;5033792;28;20021;-76
2023/08/11 03:11:07;;;;;;;7.47;4.35;;;15.80;99.90;;;;;;5033709;28;20098;-75
2023/08/11 03:13:33;;;;;;;7.07;4.25;;;15.80;99.90;;;;;;5034208;28;20025;-75
2023/08/11 03:15:58;;;;;;;8.25;4.70;;;15.80;99.90;;;;;;5033662;28;20036;-75
2023/08/11 03:18:24;;;;;;;6.55;4.15;;;15.80;99.90;;;;;;5033528;28;20029;-74
2023/08/11 03:20:52;;;;;;;6.45;4.10;;;15.70;99.90;;;;;;5032291;28;20102;-75
2023/08/11 03:23:18;;;;;;;10.55;4.15;;;15.70;99.90;;;;;;5033718;28;20427;-75
2023/08/11 03:25:43;;;;;;;7.60;4.72;;;15.70;99.90;;;;;;5032159;28;20018;-75
2023/08/11 03:28:09;;;;;;;9.48;4.40;;;15.70;99.90;;;;;;5033572;28;20076;-75
2023/08/11 03:30:35;;;;;;;6.05;4.50;;;15.70;99.90;;;;;;5033630;28;20108;-75
2023/08/11 03:33:00;;;;;;;6.95;4.95;;;15.70;99.90;;;;;;5034042;28;20025;-75
2023/08/11 03:35:26;;;;;;;6.95;4.65;;;15.70;99.90;;;;;;5032235;28;20415;-75
2023/08/11 03:37:52;;;;;;;9.52;4.95;;;15.70;99.90;;;;;;5033320;28;20412;-75
2023/08/11 03:40:17;;;;;;;9.63;5.00;;;15.70;99.90;;;;;;5033714;28;20025;-75
2023/08/11 03:42:43;;;;;;;7.22;4.85;;;15.60;99.90;;;;;;5033376;28;20022;-75
2023/08/11 03:45:12;;;;;;;10.25;5.45;;;15.60;99.90;;;;;;5033323;28;20029;-75
2023/08/11 03:47:40;;;;;;;8.93;5.03;;;15.60;99.90;;;;;;5033338;28;20025;-75
2023/08/11 03:50:06;;;;;;;8.00;5.47;;;15.60;99.90;;;;;;5033873;28;20049;-75
2023/08/11 03:52:32;;;;;;;9.10;5.72;;;15.60;99.90;;;;;;5033195;28;20029;-75
2023/08/11 03:54:58;;;;;;;9.63;5.50;;;15.60;99.90;;;;;;5033049;28;20485;-75
2023/08/11 03:57:25;;;;;;;8.18;5.13;;;15.60;99.90;;;;;;5033177;28;20021;-75
2023/08/11 03:59:51;;;;;;;9.50;5.70;;;15.50;99.90;;;;;;5031835;28;20158;-75
2023/08/11 04:02:17;;;;;;;7.95;5.40;;;15.50;99.90;;;;;;5033132;28;20065;-75
2023/08/11 04:04:42;;;;;;;9.30;5.55;;;15.50;99.90;;;;;;5031955;28;20380;-75
2023/08/11 04:07:08;;;;;;;9.82;5.63;;;15.50;99.90;;;;;;5035780;28;20104;-75
2023/08/11 04:09:34;;;;;;;12.70;6.47;;;15.50;99.90;;;;;;5037162;28;20064;-75
2023/08/11 04:11:59;;;;;;;10.20;5.55;;;15.50;99.90;;;;;;5035900;28;20370;-75
2023/08/11 04:14:25;;;;;;;7.78;5.50;;;15.50;99.90;;;;;;5036870;28;20453;-75
2023/08/11 04:16:51;;;;;;;10.52;6.53;;;15.50;99.90;;;;;;5036919;28;20393;-75
2023/08/11 04:19:16;;;;;;;12.60;7.25;;;15.50;99.90;;;;;;5036914;28;20033;-75
2023/08/11 04:21:42;;;;;;;13.45;7.18;;;15.50;99.90;;;;;;5036844;28;20078;-75
2023/08/11 04:24:08;;;;;;;14.02;6.65;;;15.40;99.90;;;;;;5036800;28;20021;-75
2023/08/11 04:26:34;;;;;;;13.43;6.07;;;15.40;99.90;;;;;;5036869;28;20084;-75
2023/08/11 04:29:03;;;;;;;9.88;6.10;;;15.40;99.90;;;;;;5036818;28;20447;-75
2023/08/11 04:31:29;;;;;;;12.93;6.80;;;15.40;99.90;;;;;;5035478;28;20029;-75
2023/08/11 04:33:55;;;;;;;13.77;6.20;;;15.50;99.90;;;;;;5037255;28;20034;-75
2023/08/11 04:36:20;;;;;;;10.57;6.57;;;15.50;99.90;;;;;;5036646;28;20026;-75
2023/08/11 04:38:46;;;;;;;9.93;6.38;;;15.50;99.90;;;;;;5035319;28;20091;-75
2023/08/11 04:41:11;;;;;;;11.90;6.65;;;15.50;99.90;;;;;;5036571;28;20028;-75
2023/08/11 04:43:38;;;;;;;11.15;6.28;;;15.50;99.90;;;;;;5036465;28;20049;-75
2023/08/11 04:46:04;;;;;;;10.30;6.57;;;15.60;99.90;;;;;;5036366;28;20010;-75
2023/08/11 04:48:29;;;;;;;11.63;7.38;;;15.60;99.90;;;;;;5036331;28;20064;-75
2023/08/11 04:50:56;;;;;;;10.77;7.32;;;15.60;99.90;;;;;;5036248;28;20025;-75
2023/08/11 04:53:22;;;;;;;11.32;7.15;;;15.70;99.90;;;;;;5036325;28;20026;-75
2023/08/11 04:55:48;;;;;;;12.27;7.22;;;15.70;99.90;;;;;;5036246;28;20028;-75
2023/08/11 04:58:13;;;;;;;12.48;7.07;;;15.80;99.90;;;;;;5035120;28;20053;-75
2023/08/11 05:00:39;;;;;;;15.32;7.85;;;15.80;99.90;;;;;;5036170;28;20030;-75
2023/08/11 05:03:05;;;;;;;18.20;8.60;;;15.90;99.90;;;;;;5036188;28;20033;-74
2023/08/11 05:05:30;;;;;;;12.77;7.47;;;15.90;99.90;;;;;;5036157;28;20057;-75
2023/08/11 05:07:56;;;;;;;11.30;7.28;;;16.00;99.90;;;;;;5036584;28;20086;-75
2023/08/11 05:10:22;;;;;;;10.75;7.13;;;16.00;99.90;;;;;;5036093;28;20021;-75
2023/08/11 05:12:48;;;;;;;11.85;7.40;;;16.20;99.90;;;;;;5036333;28;20021;-75
2023/08/11 05:15:14;;;;;;;13.75;7.13;;;16.10;99.90;;;;;;5035869;28;20107;-75
2023/08/11 05:17:40;;;;;;;9.80;7.03;;;16.20;99.90;;;;;;5035736;28;20076;-75
2023/08/11 05:20:09;;;;;;;12.02;7.53;;;16.30;99.90;;;;;;5035973;28;20021;-75
2023/08/11 05:22:35;;;;;;;;;;;16.30;99.90;;;;;;5036869;28;20028;-75
2023/08/11 05:25:03;;;;;;;9.70;6.97;;;16.40;99.90;;;;;;5035767;28;19905;-76
2023/08/11 05:27:32;;;;;;;12.27;6.63;;;16.50;99.90;;;;;;5036268;28;20025;-76
2023/08/11 05:29:57;;;;;;;10.52;6.72;;;16.60;99.90;;;;;;5035891;28;20029;-76
2023/08/11 05:32:26;;;;;;;10.10;6.78;;;16.60;99.90;;;;;;5035672;28;20366;-76
2023/08/11 05:34:52;;;;;;;10.60;6.82;;;16.70;99.90;;;;;;5034343;28;20088;-76
2023/08/11 05:37:18;;;;;;;15.43;7.20;;;16.80;99.90;;;;;;5035501;28;20026;-75
2023/08/11 05:39:43;;;;;;;12.52;6.85;;;16.90;99.90;;;;;;5034292;28;20021;-75
2023/08/11 05:42:09;;;;;;;14.70;7.25;;;17.00;99.90;;;;;;5035446;28;20358;-76
2023/08/11 05:44:35;;;;;;;14.18;7.78;;;17.10;99.90;;;;;;5035359;28;20377;-75
2023/08/11 05:47:01;;;;;;;12.75;6.95;;;17.10;99.90;;;;;;5035469;28;20052;-75
2023/08/11 05:49:27;;;;;;;11.05;6.95;;;17.20;99.90;;;;;;5035439;28;20080;-76
2023/08/11 05:51:52;;;;;;;11.93;7.13;;;17.30;99.90;;;;;;5035433;28;20095;-76
2023/08/11 05:54:18;;;;;;;12.10;7.35;;;17.40;99.90;;;;;;5035133;28;20022;-75
2023/08/11 05:56:43;;;;;;;10.90;7.32;;;17.50;99.90;;;;;;5035229;28;20042;-75
2023/08/11 05:59:09;;;;;;;10.93;7.07;;;17.60;99.90;;;;;;5035054;28;20025;-75
2023/08/11 06:01:35;;;;;;;16.35;7.75;;;17.70;99.90;;;;;;5035272;28;20040;-76
2023/08/11 06:04:01;;;;;;;11.18;6.60;;;17.80;99.90;;;;;;5035943;28;20017;-75
2023/08/11 06:06:27;;;;;;;15.05;7.88;;;17.90;99.90;;;;;;5035980;28;20100;-75
2023/08/11 06:08:54;;;;;;;12.07;7.07;;;18.00;99.90;;;;;;5034993;28;20117;-75
2023/08/11 06:11:20;;;;;;;12.32;7.32;;;18.00;99.90;;;;;;5034852;28;20026;-75
2023/08/11 06:13:46;;;;;;;12.98;7.57;;;18.10;99.90;;;;;;5034780;28;20025;-76
2023/08/11 06:16:11;;;;;;;15.75;8.00;;;18.20;99.90;;;;;;5034724;28;20096;-75
2023/08/11 06:18:37;;;;;;;11.82;7.03;;;18.30;99.90;;;;;;5033512;28;20076;-75
2023/08/11 06:21:04;;;;;;;12.35;7.68;;;18.30;99.90;;;;;;5034815;28;20049;-75
2023/08/11 06:23:31;;;;;;;11.52;7.50;;;18.40;99.90;;;;;;5034739;28;20049;-75
2023/08/11 06:25:56;;;;;;;18.25;7.43;;;18.50;99.90;;;;;;5034416;28;20026;-76
2023/08/11 06:28:22;;;;;;;11.50;7.13;;;18.60;99.90;;;;;;5033966;28;20026;-76
2023/08/11 06:30:48;;;;;;;13.23;7.57;;;18.70;99.90;;;;;;5033262;28;20028;-76
2023/08/11 06:33:13;;;;;;;13.75;7.25;;;18.70;99.90;;;;;;5034612;28;20026;-75
2023/08/11 06:35:39;;;;;;;11.60;7.43;;;18.90;99.90;;;;;;5034604;28;20029;-75
2023/08/11 06:38:04;;;;;;;18.45;8.38;;;19.00;99.90;;;;;;5034241;28;20028;-76
2023/08/11 06:40:30;;;;;;;15.48;7.82;;;19.10;99.90;;;;;;5034376;28;20014;-75
2023/08/11 06:42:55;;;;;;;13.73;7.78;;;19.20;99.90;;;;;;5034491;28;20481;-75
2023/08/11 06:45:21;;;;;;;11.75;6.95;;;19.20;99.90;;;;;;5032899;28;20120;-75
2023/08/11 06:47:47;;;;;;;12.95;8.23;;;19.30;99.90;;;;;;5034176;28;20103;-75
2023/08/11 06:50:12;;;;;;;14.25;7.30;;;19.40;99.90;;;;;;5032902;28;20033;-75
2023/08/11 06:52:38;;;;;;;14.40;7.72;;;19.70;99.90;;;;;;5034053;28;20029;-75
2023/08/11 06:55:05;;;;;;;15.05;7.28;;;19.70;99.90;;;;;;5034379;28;20053;-75
2023/08/11 06:57:30;;;;;;;15.40;8.43;;;19.70;99.90;;;;;;5033900;28;20442;-75
2023/08/11 06:59:56;;;;;;;12.05;6.90;;;19.80;99.90;;;;;;5033869;28;20112;-75
2023/08/11 07:02:22;;;;;;;10.82;7.50;;;19.80;99.90;;;;;;5034517;28;20378;-75
2023/08/11 07:04:48;;;;;;;13.80;7.50;;;19.90;99.90;;;;;;5033803;28;20017;-75
2023/08/11 07:07:13;;;;;;;14.88;7.82;;;20.00;99.90;;;;;;5034108;28;20033;-75
2023/08/11 07:09:39;;;;;;;17.35;7.50;;;;;;;;;;5033800;28;20021;-75
2023/08/11 07:12:06;;;;;;;10.85;6.60;;;20.30;99.90;;;;;;5033887;28;20036;-75
2023/08/11 07:14:31;;;;;;;10.60;6.55;;;20.50;99.90;;;;;;5032495;28;20028;-75
2023/08/11 07:16:57;;;;;;;12.68;7.60;;;20.50;99.90;;;;;;5033718;28;20393;-75
2023/08/11 07:19:23;;;;;;;13.50;7.15;;;20.60;99.90;;;;;;5034240;28;20032;-75
2023/08/11 07:21:48;;;;;;;12.02;6.97;;;20.70;99.90;;;;;;5033663;28;20025;-76
2023/08/11 07:24:14;;;;;;;12.88;6.53;;;20.80;99.90;;;;;;5033711;28;20500;-74
2023/08/11 07:26:40;;;;;;;10.88;6.32;;;20.80;99.90;;;;;;5034078;28;20152;-75
2023/08/11 07:29:05;;;;;;;10.35;7.47;;;20.90;99.90;;;;;;5033654;28;20108;-76
2023/08/11 07:31:31;;;;;;;15.00;6.57;;;20.90;99.90;;;;;;5032209;28;20105;-76
2023/08/11 07:33:56;;;;;;;9.93;6.80;;;21.10;99.90;;;;;;5033418;28;20103;-75
2023/08/11 07:36:22;;;;;;;10.60;6.55;;;21.20;99.90;;;;;;5033453;28;20022;-75
2023/08/11 07:38:47;;;;;;;11.48;6.85;;;21.20;99.90;;;;;;5033939;28;20029;-75
2023/08/11 07:41:13;;;;;;;14.05;7.45;;;21.40;99.90;;;;;;5033306;28;20092;-75
2023/08/11 07:43:39;;;;;;;9.43;6.50;;;21.50;99.90;;;;;;5033436;28;20428;-75
2023/08/11 07:46:05;;;;;;;11.10;6.80;;;21.60;99.90;;;;;;5033156;28;20040;-75
2023/08/11 07:48:30;;;;;;;11.23;6.18;;;21.70;99.90;;;;;;5033268;28;20029;-75
2023/08/11 07:50:56;;;;;;;14.45;6.57;;;21.80;99.90;;;;;;5033854;28;20079;-75
2023/08/11 07:53:21;;;;;;;11.68;6.22;;;21.90;99.90;;;;;;5033198;28;20017;-75
2023/08/11 07:55:47;;;;;;;9.00;5.82;;;22.00;99.90;;;;;;5033281;28;20104;-75
2023/08/11 07:58:13;;;;;;;8.45;5.30;;;22.10;99.90;;;;;;5033207;28;20060;-75
2023/08/11 08:00:38;;;;;;;9.63;5.80;;;22.30;99.90;;;;;;5031850;28;20489;-75
2023/08/11 08:03:04;;;;;;;9.10;5.32;;;22.40;99.90;;;;;;5033584;28;20026;-75
2023/08/11 08:05:30;;;;;;;8.90;4.93;;;22.60;99.90;;;;;;5032992;28;20092;-75
2023/08/11 08:07:56;;;;;;;9.50;5.35;;;22.70;99.90;;;;;;5031906;28;20172;-76
2023/08/11 08:10:22;;;;;;;7.75;4.72;;;22.80;99.90;;;;;;5033028;28;20061;-74
2023/08/11 08:12:47;;;;;;;6.68;4.22;;;22.90;99.90;;;;;;5033322;28;20033;-75
2023/08/11 08:15:14;;;;;;;6.40;4.30;;;23.00;99.90;;;;;;5032950;28;20041;-74
2023/08/11 08:17:40;;;;;;;8.95;4.53;;;23.10;99.90;;;;;;5032894;28;20079;-76
2023/08/11 08:20:13;;;;;;;9.90;4.63;;;23.30;99.90;;;;;;5033178;28;20026;-75
2023/08/11 08:22:39;;;;;;;7.28;4.00;;;23.40;99.90;;;;;;5032982;28;20022;-75
2023/08/11 08:25:08;;;;;;;8.52;3.72;;;23.60;99.90;;;;;;5032890;28;20414;-74
2023/08/11 08:27:36;;;;;;;11.18;3.80;;;23.70;99.90;;;;;;5032923;28;20026;-76
2023/08/11 08:30:03;;;;;;;4.93;3.42;;;23.90;99.90;;;;;;5032925;28;20025;-75
2023/08/11 08:32:29;;;;;;;9.60;4.38;;;23.90;99.90;;;;;;5032889;28;20030;-75
2023/08/11 08:34:55;;;;;;;4.78;3.10;;;24.10;99.90;;;;;;5033470;28;20025;-75
2023/08/11 08:37:24;;;;;;;5.05;3.50;;;24.50;99.90;;;;;;5031477;28;20484;-75
2023/08/11 08:39:51;;;;;;;5.95;2.78;;;24.50;99.90;;;;;;5032863;28;20100;-76
2023/08/11 08:42:18;;;;;;;5.05;2.90;;;24.70;99.90;;;;;;5031577;28;20493;-75
2023/08/11 08:44:47;;;;;;;4.28;2.10;;;25.00;99.90;;;;;;5031508;28;20415;-75
2023/08/11 08:47:13;;;;;;;3.40;2.05;;;25.20;99.90;;;;;;5032855;28;20420;-76
2023/08/11 08:49:39;;;;;;;5.47;1.63;;;25.50;99.90;;;;;;5032754;28;20025;-76
2023/08/11 08:52:06;;;;;;;4.15;1.60;;;25.80;99.90;;;;;;5034732;28;20033;-75
2023/08/11 08:54:33;;;;;;;3.20;1.45;;;25.80;99.90;;;;;;5036358;28;20117;-75
2023/08/11 08:56:59;;;;;;;3.97;1.58;;;25.80;99.90;;;;;;5036239;28;20436;-75
2023/08/11 08:59:25;;;;;;;3.15;1.40;;;25.90;99.90;;;;;;5034884;28;20026;-75
2023/08/11 09:01:50;;;;;;;5.63;1.52;;;25.90;99.90;;;;;;5035029;28;20018;-75
2023/08/11 09:04:20;;;;;;;6.60;1.50;;;26.00;99.90;;;;;;5036249;28;20396;-76
2023/08/11 09:06:47;;;;;;;2.03;1.00;;;26.00;99.90;;;;;;5036170;28;20049;-75
2023/08/11 09:09:13;;;;;;;4.10;0.70;;;26.00;99.90;;;;;;5034893;28;20029;-75
2023/08/11 09:11:39;;;;;;;3.47;1.10;;;26.10;99.90;;;;;;5034898;28;20017;-74
2023/08/11 09:14:07;;;;;;;2.22;0.70;;;26.10;99.90;;;;;;5035877;28;20048;-75
2023/08/11 09:16:39;;;;;;;5.25;0.43;;;26.10;99.90;;;;;;5035945;28;20053;-76
2023/08/11 09:19:12;;;;;;;2.95;0.70;;;26.20;99.90;;;;;;5035928;28;20072;-74
2023/08/11 09:21:42;;;;;;;2.35;0.55;;;26.20;99.90;;;;;;5034686;28;20021;-75
2023/08/11 09:24:11;;;;;;;3.45;0.70;;;26.20;99.90;;;;;;5035752;28;20021;-76
2023/08/11 09:26:40;;;;;;;1.23;0.70;;;26.20;99.90;;;;;;5035741;28;20392;-75
2023/08/11 09:29:05;;;;;;;;;;;26.20;99.90;;;;;;5036104;28;20105;-75
2023/08/11 09:31:31;;;;;;;2.78;0.65;;;26.10;99.90;;;;;;5035711;28;20356;-75
2023/08/11 09:34:09;;;;;;;2.05;0.47;;;26.10;99.90;;;;;;5034392;28;20021;-75
2023/08/11 09:36:35;;;;;;;5.00;1.33;;;26.10;99.90;;;;;;5034303;28;20515;-75
2023/08/11 09:39:08;;;;;;;2.65;0.80;;;26.20;99.90;;;;;;5035483;28;20056;-76
2023/08/11 09:41:43;;;;;;;1.45;0.50;;;26.40;99.90;;;;;;5034213;28;20029;-76
2023/08/11 09:44:15;;;;;;;2.75;0.47;;;26.50;99.90;;;;;;5035868;28;20037;-75
2023/08/11 09:46:42;;;;;;;4.22;0.57;;;26.60;99.90;;;;;;5035404;28;20061;-75
2023/08/11 09:49:08;;;;;;;2.78;0.60;;;26.70;99.90;;;;;;5035322;28;20022;-75
2023/08/11 09:51:35;;;;;;;2.25;0.20;;;26.60;99.90;;;;;;5035326;28;20029;-75
2023/08/11 09:54:06;;;;;;;1.98;0.68;;;26.60;99.90;;;;;;5035262;28;20022;-75
2023/08/11 09:56:37;;;;;;;0.90;0.30;;;26.60;99.90;;;;;;5035247;28;20018;-75
2023/08/11 09:59:04;;;;;;;1.25;0.20;;;26.60;99.90;;;;;;5035174;28;20037;-76
2023/08/11 10:01:34;;;;;;;0.63;0.17;;;26.70;99.90;;;;;;5033704;28;20025;-75
2023/08/11 10:04:03;;;;;;;1.17;0.43;;;26.90;99.90;;;;;;5033857;28;20044;-76
2023/08/11 10:06:31;;;;;;;2.47;0.50;;;27.00;99.90;;;;;;5034929;28;20010;-75
2023/08/11 10:09:02;;;;;;;1.40;0.60;;;27.10;99.90;;;;;;5033799;28;20053;-75
2023/08/11 10:11:30;;;;;;;2.95;0.35;;;27.30;99.90;;;;;;5034893;28;20018;-76
2023/08/11 10:13:56;;;;;;;1.23;0.40;;;27.40;99.90;;;;;;5034681;28;20044;-75
2023/08/11 10:16:23;;;;;;;1.58;0.40;;;27.40;99.90;;;;;;5033406;28;20048;-75
2023/08/11 10:18:50;;;;;;;1.80;0.15;;;27.60;99.90;;;;;;5034672;28;20083;-75
2023/08/11 10:21:16;;;;;;;2.45;0.63;;;27.60;99.90;;;;;;5034895;28;20448;-75
2023/08/11 10:23:42;;;;;;;6.07;0.40;;;27.70;99.90;;;;;;5033438;28;20045;-75
2023/08/11 10:26:09;;;;;;;2.58;0.30;;;27.60;99.90;;;;;;5034456;28;20053;-76
2023/08/11 10:28:35;;;;;;;1.63;0.38;;;27.70;99.90;;;;;;5034762;28;20035;-75
2023/08/11 10:31:04;;;;;;;1.05;0.30;;;27.80;99.90;;;;;;5034699;28;20096;-75
2023/08/11 10:33:31;;;;;;;0.40;0.30;;;27.70;99.90;;;;;;5035080;28;20461;-76
2023/08/11 10:36:00;;;;;;;1.05;0.25;;;27.70;99.90;;;;;;5034579;28;20025;-75
2023/08/11 10:38:31;;;;;;;1.08;0.30;;;27.80;99.90;;;;;;5034367;28;20022;-75
2023/08/11 10:41:05;;;;;;;1.75;0.40;;;28.00;99.90;;;;;;5034379;28;20022;-76
2023/08/11 10:43:40;;;;;;;1.95;0.13;;;28.10;99.90;;;;;;5033072;28;20029;-76
2023/08/11 10:46:26;;;;;;;0.85;0.20;;;28.10;99.90;;;;;;5034189;28;20025;-75
2023/08/11 10:49:16;;;;;;;2.40;0.20;;;28.20;99.90;;;;;;5032968;28;20025;-76
2023/08/11 10:51:42;;;;;;;3.40;0.30;;;28.30;99.90;;;;;;5034344;28;20026;-77
2023/08/11 10:54:10;;;;;;;4.80;1.15;;;28.50;99.90;;;;;;5034079;28;20683;-75
2023/08/11 10:56:44;;;;;;;0.65;0.13;;;28.60;99.90;;;;;;5034053;28;20060;-76
2023/08/11 10:59:22;;;;;;;2.78;0.32;;;28.80;99.90;;;;;;5032591;28;20030;-75
2023/08/11 11:01:51;;;;;;;5.05;0.15;;;28.70;99.90;;;;;;5032611;28;20476;-76
2023/08/11 11:04:18;;;;;;;1.08;0.20;;;28.70;99.90;;;;;;5033943;28;20014;-75
2023/08/11 11:06:45;;;;;;;1.90;0.30;;;28.90;99.90;;;;;;5032584;28;20163;-75
2023/08/11 11:09:11;;;;;;;0.43;0.22;;;29.00;99.90;;;;;;5033824;28;20030;-76
2023/08/11 11:11:37;;;;;;;3.00;0.20;;;29.10;98.60;;;;;;5032597;28;20017;-75
2023/08/11 11:14:08;;;;;;;2.90;0.20;;;29.30;99.30;;;;;;5033527;28;20028;-76
2023/08/11 11:16:34;;;;;;;1.73;0.20;;;29.40;98.50;;;;;;5034181;28;20587;-76
2023/08/11 11:19:02;;;;;;;0.20;0.10;;;29.30;98.20;;;;;;5032371;28;20071;-75
2023/08/11 11:21:28;;;;;;;2.40;0.23;;;29.30;98.50;;;;;;5033742;28;20025;-75
2023/08/11 11:23:54;;;;;;;1.80;0.00;;;29.30;98.40;;;;;;5033446;28;20025;-75
2023/08/11 11:26:27;;;;;;;1.63;0.60;;;29.40;99.10;;;;;;5033551;28;20025;-75
2023/08/11 11:28:55;;;;;;;4.65;0.10;;;29.30;97.90;;;;;;5034096;28;20017;-75
2023/08/11 11:31:22;;;;;;;2.13;0.70;;;29.40;99.90;;;;;;5033505;28;20487;-76
2023/08/11 11:33:49;;;;;;;1.75;0.40;;;29.40;99.10;;;;;;5033393;28;20022;-75
2023/08/11 11:36:17;;;;;;;1.15;0.20;;;29.40;98.30;;;;;;5033461;28;20024;-75
2023/08/11 11:38:43;;;;;;;;;;;29.50;98.20;;;;;;5032629;28;20026;-76
2023/08/11 11:41:13;;;;;;;1.63;0.40;;;29.70;98.10;;;;;;5033285;28;20374;-75
2023/08/11 11:43:39;;;;;;;4.03;0.20;;;29.90;96.40;;;;;;5033288;28;20032;-75
2023/08/11 11:46:15;;;;;;;2.33;0.30;;;30.10;98.40;;;;;;5033268;28;20032;-75
2023/08/11 11:48:54;;;;;;;2.72;0.32;;;30.20;96.70;;;;;;5032123;28;20029;-76
2023/08/11 11:51:30;;;;;;;1.15;0.40;;;30.20;96.80;;;;;;5033302;28;20029;-76
2023/08/11 11:53:58;;;;;;;2.03;0.43;;;30.30;96.60;;;;;;5033895;28;20091;-74
2023/08/11 11:56:26;;;;;;;1.60;0.20;;;30.40;96.80;;;;;;5033717;28;20041;-76
2023/08/11 11:58:52;;;;;;;;;;;30.30;96.70;;;;;;5033479;28;20048;-75
2023/08/11 12:01:24;;;;;;;3.13;0.73;;;30.30;96.10;;;;;;5031947;28;19906;-76
2023/08/11 12:03:50;;;;;;;3.05;0.80;;;30.10;96.60;;;;;;5033125;28;20025;-75
2023/08/11 12:06:18;;;;;;;3.40;0.82;;;30.00;96.60;;;;;;5033162;28;20459;-75
2023/08/11 12:08:44;;;;;;;1.35;0.50;;;30.00;96.10;;;;;;5031825;28;20152;-76
2023/08/11 12:11:11;;;;;;;0.88;0.17;;;30.10;96.30;;;;;;5032883;28;20028;-75
2023/08/11 12:13:42;;;;;;;2.63;0.93;;;30.20;96.20;;;;;;5033053;28;20512;-75
2023/08/11 12:16:09;;;;;;;2.88;0.60;;;30.50;96.50;;;;;;5033492;28;20108;-75
2023/08/11 12:18:37;;;;;;;7.85;0.43;;;30.50;96.20;;;;;;5032892;28;20496;-75
2023/08/11 12:21:03;;;;;;;4.18;0.32;;;30.30;95.90;;;;;;5031692;28;20393;-76
2023/08/11 12:23:29;;;;;;;2.60;0.40;;;30.10;96.10;;;;;;5032822;28;20017;-75
2023/08/11 12:25:55;;;;;;;2.53;0.17;;;30.10;96.10;;;;;;5033162;28;20500;-75
2023/08/11 12:28:21;;;;;;;2.22;0.50;;;30.30;95.90;;;;;;5037008;28;20061;-75
2023/08/11 12:30:47;;;;;;;1.60;0.30;;;30.40;95.60;;;;;;5036778;28;20053;-75
2023/08/11 12:33:13;;;;;;;1.73;0.35;;;30.70;95.00;;;;;;5037211;28;20477;-76
2023/08/11 12:35:39;;;;;;;1.38;0.60;;;30.70;94.80;;;;;;5036652;28;20028;-76
2023/08/11 12:38:07;;;;;;;1.55;0.10;;;30.50;94.30;;;;;;5036538;28;20025;-75
2023/08/11 12:40:33;;;;;;;1.02;0.25;;;30.00;94.90;;;;;;5037156;28;20101;-76
2023/08/11 12:42:58;;;;;;;2.58;0.52;;;29.80;95.60;;;;;;5035401;28;20053;-75